sensor_id;sensor_type;location;lat;lon;timestamp;P1;durP1;ratioP1;P2;durP2;ratioP2
56183;SDS011;42086;53.170;6.980;2022-07-21T00:00:22;11.43;;;6.78;;
56183;SDS011;42086;53.170;6.980;2022-07-21T00:02:50;13.57;;;6.18;;
56183;SDS011;42086;53.170;6.980;2022-07-21T00:05:16;12.95;;;6.35;;
56183;SDS011;42086;53.170;6.980;2022-07-21T00:07:42;10.20;;;6.38;;
56183;SDS011;42086;53.170;6.980;2022-07-21T00:10:08;11.93;;;6.60;;
56183;SDS011;42086;53.170;6.980;2022-07-21T00:12:35;8.93;;;6.55;;
56183;SDS011;42086;53.170;6.980;2022-07-21T00:15:01;14.15;;;7.60;;
56183;SDS011;42086;53.170;6.980;2022-07-21T00:17:27;13.35;;;7.28;;
56183;SDS011;42086;53.170;6.980;2022-07-21T00:19:53;12.68;;;7.53;;
56183;SDS011;42086;53.170;6.980;2022-07-21T00:22:19;12.63;;;7.43;;
56183;SDS011;42086;53.170;6.980;2022-07-21T00:24:45;13.40;;;7.30;;
56183;SDS011;42086;53.170;6.980;2022-07-21T00:27:10;13.80;;;7.43;;
56183;SDS011;42086;53.170;6.980;2022-07-21T00:29:36;14.48;;;7.57;;
56183;SDS011;42086;53.170;6.980;2022-07-21T00:32:02;14.25;;;7.28;;
56183;SDS011;42086;53.170;6.980;2022-07-21T00:34:29;13.88;;;8.13;;
56183;SDS011;42086;53.170;6.980;2022-07-21T00:36:55;16.13;;;8.07;;
56183;SDS011;42086;53.170;6.980;2022-07-21T00:39:20;13.35;;;7.47;;
56183;SDS011;42086;53.170;6.980;2022-07-21T00:41:49;13.88;;;8.23;;
56183;SDS011;42086;53.170;6.980;2022-07-21T00:44:19;14.35;;;7.88;;
56183;SDS011;42086;53.170;6.980;2022-07-21T00:46:45;21.15;;;9.15;;
56183;SDS011;42086;53.170;6.980;2022-07-21T00:49:11;19.05;;;10.07;;
56183;SDS011;42086;53.170;6.980;2022-07-21T00:51:36;21.42;;;10.30;;
56183;SDS011;42086;53.170;6.980;2022-07-21T00:54:02;19.58;;;10.25;;
56183;SDS011;42086;53.170;6.980;2022-07-21T00:56:28;19.15;;;10.45;;
56183;SDS011;42086;53.170;6.980;2022-07-21T00:58:54;20.80;;;11.60;;
56183;SDS011;42086;53.170;6.980;2022-07-21T01:01:19;21.85;;;11.60;;
56183;SDS011;42086;53.170;6.980;2022-07-21T01:03:45;25.75;;;12.52;;
56183;SDS011;42086;53.170;6.980;2022-07-21T01:06:11;19.67;;;11.60;;
56183;SDS011;42086;53.170;6.980;2022-07-21T01:08:36;19.52;;;11.13;;
56183;SDS011;42086;53.170;6.980;2022-07-21T01:11:02;22.98;;;13.40;;
56183;SDS011;42086;53.170;6.980;2022-07-21T01:13:28;26.65;;;13.65;;
56183;SDS011;42086;53.170;6.980;2022-07-21T01:15:54;24.65;;;13.63;;
56183;SDS011;42086;53.170;6.980;2022-07-21T01:18:20;26.23;;;12.82;;
56183;SDS011;42086;53.170;6.980;2022-07-21T01:20:50;25.13;;;12.95;;
56183;SDS011;42086;53.170;6.980;2022-07-21T01:23:18;28.48;;;14.52;;
56183;SDS011;42086;53.170;6.980;2022-07-21T01:25:48;22.05;;;13.55;;
56183;SDS011;42086;53.170;6.980;2022-07-21T01:28:15;25.87;;;12.80;;
56183;SDS011;42086;53.170;6.980;2022-07-21T01:30:41;19.70;;;12.85;;
56183;SDS011;42086;53.170;6.980;2022-07-21T01:33:07;20.38;;;13.05;;
56183;SDS011;42086;53.170;6.980;2022-07-21T01:35:33;23.38;;;13.80;;
56183;SDS011;42086;53.170;6.980;2022-07-21T01:37:59;24.60;;;13.52;;
56183;SDS011;42086;53.170;6.980;2022-07-21T01:40:25;26.02;;;14.68;;
56183;SDS011;42086;53.170;6.980;2022-07-21T01:43:10;33.80;;;14.85;;
56183;SDS011;42086;53.170;6.980;2022-07-21T01:45:35;31.67;;;15.88;;
56183;SDS011;42086;53.170;6.980;2022-07-21T01:48:01;29.23;;;14.80;;
56183;SDS011;42086;53.170;6.980;2022-07-21T01:50:27;24.63;;;14.55;;
56183;SDS011;42086;53.170;6.980;2022-07-21T01:52:54;26.05;;;14.63;;
56183;SDS011;42086;53.170;6.980;2022-07-21T01:55:23;23.23;;;13.00;;
56183;SDS011;42086;53.170;6.980;2022-07-21T01:57:50;22.67;;;13.68;;
56183;SDS011;42086;53.170;6.980;2022-07-21T02:00:16;21.50;;;13.18;;
56183;SDS011;42086;53.170;6.980;2022-07-21T02:02:42;25.23;;;14.20;;
56183;SDS011;42086;53.170;6.980;2022-07-21T02:05:08;26.10;;;14.45;;
56183;SDS011;42086;53.170;6.980;2022-07-21T02:07:34;26.33;;;14.45;;
56183;SDS011;42086;53.170;6.980;2022-07-21T02:10:00;36.22;;;16.23;;
56183;SDS011;42086;53.170;6.980;2022-07-21T02:12:26;30.85;;;15.95;;
56183;SDS011;42086;53.170;6.980;2022-07-21T02:14:51;29.92;;;16.23;;
56183;SDS011;42086;53.170;6.980;2022-07-21T02:17:17;23.85;;;14.70;;
56183;SDS011;42086;53.170;6.980;2022-07-21T02:19:43;23.05;;;14.40;;
56183;SDS011;42086;53.170;6.980;2022-07-21T02:22:08;27.13;;;15.00;;
56183;SDS011;42086;53.170;6.980;2022-07-21T02:24:34;24.27;;;14.55;;
56183;SDS011;42086;53.170;6.980;2022-07-21T02:27:00;30.58;;;15.45;;
56183;SDS011;42086;53.170;6.980;2022-07-21T02:29:27;24.33;;;15.13;;
56183;SDS011;42086;53.170;6.980;2022-07-21T02:31:52;22.55;;;15.63;;
56183;SDS011;42086;53.170;6.980;2022-07-21T02:34:18;27.08;;;16.58;;
56183;SDS011;42086;53.170;6.980;2022-07-21T02:36:44;25.48;;;15.13;;
56183;SDS011;42086;53.170;6.980;2022-07-21T02:39:09;27.00;;;15.55;;
56183;SDS011;42086;53.170;6.980;2022-07-21T02:41:35;23.63;;;14.85;;
56183;SDS011;42086;53.170;6.980;2022-07-21T02:44:01;29.05;;;16.20;;
56183;SDS011;42086;53.170;6.980;2022-07-21T02:46:26;24.00;;;15.65;;
56183;SDS011;42086;53.170;6.980;2022-07-21T02:48:52;23.67;;;15.18;;
56183;SDS011;42086;53.170;6.980;2022-07-21T02:51:18;29.60;;;15.80;;
56183;SDS011;42086;53.170;6.980;2022-07-21T02:53:43;26.95;;;16.25;;
56183;SDS011;42086;53.170;6.980;2022-07-21T02:56:09;25.90;;;15.40;;
56183;SDS011;42086;53.170;6.980;2022-07-21T02:58:35;33.25;;;16.02;;
56183;SDS011;42086;53.170;6.980;2022-07-21T03:01:02;27.90;;;15.02;;
56183;SDS011;42086;53.170;6.980;2022-07-21T03:03:30;29.25;;;16.50;;
56183;SDS011;42086;53.170;6.980;2022-07-21T03:05:58;35.03;;;16.80;;
56183;SDS011;42086;53.170;6.980;2022-07-21T03:08:24;30.60;;;17.23;;
56183;SDS011;42086;53.170;6.980;2022-07-21T03:10:52;25.83;;;16.85;;
56183;SDS011;42086;53.170;6.980;2022-07-21T03:13:18;32.88;;;17.80;;
56183;SDS011;42086;53.170;6.980;2022-07-21T03:15:43;27.23;;;16.63;;
56183;SDS011;42086;53.170;6.980;2022-07-21T03:18:09;25.50;;;15.98;;
56183;SDS011;42086;53.170;6.980;2022-07-21T03:20:36;29.20;;;18.00;;
56183;SDS011;42086;53.170;6.980;2022-07-21T03:23:03;32.15;;;18.08;;
56183;SDS011;42086;53.170;6.980;2022-07-21T03:25:30;33.97;;;17.70;;
56183;SDS011;42086;53.170;6.980;2022-07-21T03:27:56;35.75;;;17.98;;
56183;SDS011;42086;53.170;6.980;2022-07-21T03:30:22;31.42;;;18.95;;
56183;SDS011;42086;53.170;6.980;2022-07-21T03:32:49;28.40;;;16.52;;
56183;SDS011;42086;53.170;6.980;2022-07-21T03:35:15;30.70;;;17.60;;
56183;SDS011;42086;53.170;6.980;2022-07-21T03:37:45;32.58;;;17.90;;
56183;SDS011;42086;53.170;6.980;2022-07-21T03:40:22;27.02;;;16.70;;
56183;SDS011;42086;53.170;6.980;2022-07-21T03:42:53;29.02;;;17.33;;
56183;SDS011;42086;53.170;6.980;2022-07-21T03:45:20;34.53;;;17.65;;
56183;SDS011;42086;53.170;6.980;2022-07-21T03:47:49;27.77;;;17.02;;
56183;SDS011;42086;53.170;6.980;2022-07-21T03:50:15;26.67;;;16.77;;
56183;SDS011;42086;53.170;6.980;2022-07-21T03:52:47;37.17;;;17.95;;
56183;SDS011;42086;53.170;6.980;2022-07-21T03:55:13;34.75;;;18.92;;
56183;SDS011;42086;53.170;6.980;2022-07-21T03:57:46;29.45;;;17.35;;
56183;SDS011;42086;53.170;6.980;2022-07-21T04:00:15;28.15;;;17.38;;
56183;SDS011;42086;53.170;6.980;2022-07-21T04:02:43;28.92;;;17.15;;
56183;SDS011;42086;53.170;6.980;2022-07-21T04:05:13;25.95;;;17.17;;
56183;SDS011;42086;53.170;6.980;2022-07-21T04:07:40;29.55;;;18.38;;
56183;SDS011;42086;53.170;6.980;2022-07-21T04:10:16;28.02;;;18.08;;
56183;SDS011;42086;53.170;6.980;2022-07-21T04:12:44;26.60;;;17.35;;
56183;SDS011;42086;53.170;6.980;2022-07-21T04:15:10;28.45;;;17.73;;
56183;SDS011;42086;53.170;6.980;2022-07-21T04:17:37;31.73;;;18.13;;
56183;SDS011;42086;53.170;6.980;2022-07-21T04:20:04;30.02;;;17.27;;
56183;SDS011;42086;53.170;6.980;2022-07-21T04:22:30;27.15;;;17.20;;
56183;SDS011;42086;53.170;6.980;2022-07-21T04:24:56;28.08;;;18.15;;
56183;SDS011;42086;53.170;6.980;2022-07-21T04:27:22;36.75;;;18.88;;
56183;SDS011;42086;53.170;6.980;2022-07-21T04:29:48;25.75;;;18.13;;
56183;SDS011;42086;53.170;6.980;2022-07-21T04:32:14;35.13;;;19.33;;
56183;SDS011;42086;53.170;6.980;2022-07-21T04:34:39;31.30;;;18.20;;
56183;SDS011;42086;53.170;6.980;2022-07-21T04:37:05;33.65;;;18.35;;
56183;SDS011;42086;53.170;6.980;2022-07-21T04:39:31;30.52;;;18.27;;
56183;SDS011;42086;53.170;6.980;2022-07-21T04:41:56;29.67;;;17.73;;
56183;SDS011;42086;53.170;6.980;2022-07-21T04:44:22;35.13;;;18.52;;
56183;SDS011;42086;53.170;6.980;2022-07-21T04:46:48;31.15;;;17.77;;
56183;SDS011;42086;53.170;6.980;2022-07-21T04:49:14;27.08;;;18.02;;
56183;SDS011;42086;53.170;6.980;2022-07-21T04:51:40;36.28;;;18.83;;
56183;SDS011;42086;53.170;6.980;2022-07-21T04:54:06;37.13;;;19.65;;
56183;SDS011;42086;53.170;6.980;2022-07-21T04:56:32;29.95;;;18.75;;
56183;SDS011;42086;53.170;6.980;2022-07-21T04:58:59;29.73;;;18.67;;
56183;SDS011;42086;53.170;6.980;2022-07-21T05:01:26;30.73;;;18.42;;
56183;SDS011;42086;53.170;6.980;2022-07-21T05:03:51;37.10;;;18.95;;
56183;SDS011;42086;53.170;6.980;2022-07-21T05:06:17;30.45;;;18.77;;
56183;SDS011;42086;53.170;6.980;2022-07-21T05:08:43;30.77;;;19.33;;
56183;SDS011;42086;53.170;6.980;2022-07-21T05:11:09;36.00;;;20.42;;
56183;SDS011;42086;53.170;6.980;2022-07-21T05:13:35;30.23;;;19.08;;
56183;SDS011;42086;53.170;6.980;2022-07-21T05:16:00;33.80;;;18.90;;
56183;SDS011;42086;53.170;6.980;2022-07-21T05:18:29;33.20;;;19.30;;
56183;SDS011;42086;53.170;6.980;2022-07-21T05:20:55;32.15;;;19.83;;
56183;SDS011;42086;53.170;6.980;2022-07-21T05:23:21;31.52;;;19.67;;
56183;SDS011;42086;53.170;6.980;2022-07-21T05:25:46;33.22;;;19.52;;
56183;SDS011;42086;53.170;6.980;2022-07-21T05:28:12;34.85;;;20.50;;
56183;SDS011;42086;53.170;6.980;2022-07-21T05:30:38;32.28;;;21.08;;
56183;SDS011;42086;53.170;6.980;2022-07-21T05:33:03;38.90;;;21.08;;
56183;SDS011;42086;53.170;6.980;2022-07-21T05:35:29;37.78;;;22.23;;
56183;SDS011;42086;53.170;6.980;2022-07-21T05:37:55;35.50;;;22.00;;
56183;SDS011;42086;53.170;6.980;2022-07-21T05:40:21;37.40;;;22.67;;
56183;SDS011;42086;53.170;6.980;2022-07-21T05:42:47;34.65;;;23.27;;
56183;SDS011;42086;53.170;6.980;2022-07-21T05:45:13;39.33;;;22.30;;
56183;SDS011;42086;53.170;6.980;2022-07-21T05:47:39;41.95;;;23.80;;
56183;SDS011;42086;53.170;6.980;2022-07-21T05:50:05;35.63;;;22.73;;
56183;SDS011;42086;53.170;6.980;2022-07-21T05:52:31;36.33;;;22.48;;
56183;SDS011;42086;53.170;6.980;2022-07-21T05:54:57;38.28;;;23.73;;
56183;SDS011;42086;53.170;6.980;2022-07-21T05:57:23;38.40;;;23.45;;
56183;SDS011;42086;53.170;6.980;2022-07-21T05:59:49;38.60;;;23.15;;
56183;SDS011;42086;53.170;6.980;2022-07-21T06:02:20;40.08;;;24.73;;
56183;SDS011;42086;53.170;6.980;2022-07-21T06:04:46;34.08;;;21.95;;
56183;SDS011;42086;53.170;6.980;2022-07-21T06:07:12;33.95;;;22.13;;
56183;SDS011;42086;53.170;6.980;2022-07-21T06:09:37;37.33;;;24.10;;
56183;SDS011;42086;53.170;6.980;2022-07-21T06:12:03;33.80;;;22.95;;
56183;SDS011;42086;53.170;6.980;2022-07-21T06:14:29;37.47;;;24.13;;
56183;SDS011;42086;53.170;6.980;2022-07-21T06:16:55;36.55;;;23.88;;
56183;SDS011;42086;53.170;6.980;2022-07-21T06:19:20;39.90;;;25.63;;
56183;SDS011;42086;53.170;6.980;2022-07-21T06:21:49;40.25;;;25.98;;
56183;SDS011;42086;53.170;6.980;2022-07-21T06:24:15;35.70;;;23.70;;
56183;SDS011;42086;53.170;6.980;2022-07-21T06:26:40;44.03;;;26.70;;
56183;SDS011;42086;53.170;6.980;2022-07-21T06:29:06;42.00;;;27.05;;
56183;SDS011;42086;53.170;6.980;2022-07-21T06:31:33;45.42;;;28.48;;
56183;SDS011;42086;53.170;6.980;2022-07-21T06:33:59;43.78;;;28.33;;
56183;SDS011;42086;53.170;6.980;2022-07-21T06:36:24;41.45;;;26.77;;
56183;SDS011;42086;53.170;6.980;2022-07-21T06:38:50;35.20;;;25.85;;
56183;SDS011;42086;53.170;6.980;2022-07-21T06:41:16;32.83;;;25.42;;
56183;SDS011;42086;53.170;6.980;2022-07-21T06:43:42;35.40;;;25.63;;
56183;SDS011;42086;53.170;6.980;2022-07-21T06:46:07;35.75;;;24.80;;
56183;SDS011;42086;53.170;6.980;2022-07-21T06:48:33;32.78;;;22.58;;
56183;SDS011;42086;53.170;6.980;2022-07-21T06:50:59;33.13;;;23.65;;
56183;SDS011;42086;53.170;6.980;2022-07-21T06:53:27;31.73;;;23.92;;
56183;SDS011;42086;53.170;6.980;2022-07-21T06:55:53;33.75;;;23.67;;
56183;SDS011;42086;53.170;6.980;2022-07-21T06:58:20;33.65;;;24.52;;
56183;SDS011;42086;53.170;6.980;2022-07-21T07:00:48;32.13;;;24.15;;
56183;SDS011;42086;53.170;6.980;2022-07-21T07:03:15;33.65;;;24.98;;
56183;SDS011;42086;53.170;6.980;2022-07-21T07:05:42;34.53;;;25.95;;
56183;SDS011;42086;53.170;6.980;2022-07-21T07:08:09;35.67;;;26.40;;
56183;SDS011;42086;53.170;6.980;2022-07-21T07:10:35;37.15;;;26.75;;
56183;SDS011;42086;53.170;6.980;2022-07-21T07:13:01;35.85;;;25.70;;
56183;SDS011;42086;53.170;6.980;2022-07-21T07:15:27;32.53;;;24.48;;
56183;SDS011;42086;53.170;6.980;2022-07-21T07:17:53;41.78;;;26.17;;
56183;SDS011;42086;53.170;6.980;2022-07-21T07:20:19;35.38;;;26.33;;
56183;SDS011;42086;53.170;6.980;2022-07-21T07:22:46;34.97;;;26.65;;
56183;SDS011;42086;53.170;6.980;2022-07-21T07:25:12;37.33;;;26.85;;
56183;SDS011;42086;53.170;6.980;2022-07-21T07:27:42;34.28;;;26.10;;
56183;SDS011;42086;53.170;6.980;2022-07-21T07:30:09;37.72;;;27.60;;
56183;SDS011;42086;53.170;6.980;2022-07-21T07:32:35;37.25;;;26.42;;
56183;SDS011;42086;53.170;6.980;2022-07-21T07:35:00;35.67;;;27.40;;
56183;SDS011;42086;53.170;6.980;2022-07-21T07:37:26;36.38;;;27.35;;
56183;SDS011;42086;53.170;6.980;2022-07-21T07:39:52;37.72;;;28.50;;
56183;SDS011;42086;53.170;6.980;2022-07-21T07:42:18;37.55;;;28.17;;
56183;SDS011;42086;53.170;6.980;2022-07-21T07:44:43;42.80;;;28.70;;
56183;SDS011;42086;53.170;6.980;2022-07-21T07:47:10;37.97;;;27.30;;
56183;SDS011;42086;53.170;6.980;2022-07-21T07:49:36;36.83;;;27.40;;
56183;SDS011;42086;53.170;6.980;2022-07-21T07:52:01;37.35;;;27.02;;
56183;SDS011;42086;53.170;6.980;2022-07-21T07:54:27;40.67;;;28.27;;
56183;SDS011;42086;53.170;6.980;2022-07-21T07:56:53;35.30;;;27.00;;
56183;SDS011;42086;53.170;6.980;2022-07-21T07:59:19;35.97;;;26.73;;
56183;SDS011;42086;53.170;6.980;2022-07-21T08:01:45;36.28;;;27.13;;
56183;SDS011;42086;53.170;6.980;2022-07-21T08:04:10;37.17;;;25.70;;
56183;SDS011;42086;53.170;6.980;2022-07-21T08:06:39;36.67;;;27.70;;
56183;SDS011;42086;53.170;6.980;2022-07-21T08:09:05;36.10;;;27.23;;
56183;SDS011;42086;53.170;6.980;2022-07-21T08:11:30;35.47;;;27.42;;
56183;SDS011;42086;53.170;6.980;2022-07-21T08:13:56;35.78;;;26.63;;
56183;SDS011;42086;53.170;6.980;2022-07-21T08:16:22;36.47;;;26.65;;
56183;SDS011;42086;53.170;6.980;2022-07-21T08:18:48;33.22;;;26.45;;
56183;SDS011;42086;53.170;6.980;2022-07-21T08:21:13;36.15;;;25.58;;
56183;SDS011;42086;53.170;6.980;2022-07-21T08:23:39;35.92;;;26.73;;
56183;SDS011;42086;53.170;6.980;2022-07-21T08:26:05;36.28;;;27.38;;
56183;SDS011;42086;53.170;6.980;2022-07-21T08:28:30;31.00;;;24.85;;
56183;SDS011;42086;53.170;6.980;2022-07-21T08:30:56;32.40;;;25.35;;
56183;SDS011;42086;53.170;6.980;2022-07-21T08:33:22;31.95;;;24.15;;
56183;SDS011;42086;53.170;6.980;2022-07-21T08:35:48;28.58;;;22.50;;
56183;SDS011;42086;53.170;6.980;2022-07-21T08:38:14;30.17;;;23.90;;
56183;SDS011;42086;53.170;6.980;2022-07-21T08:40:41;30.08;;;23.60;;
56183;SDS011;42086;53.170;6.980;2022-07-21T08:43:08;30.50;;;24.98;;
56183;SDS011;42086;53.170;6.980;2022-07-21T08:45:35;29.75;;;24.38;;
56183;SDS011;42086;53.170;6.980;2022-07-21T08:48:02;31.00;;;24.02;;
56183;SDS011;42086;53.170;6.980;2022-07-21T08:50:29;29.00;;;23.00;;
56183;SDS011;42086;53.170;6.980;2022-07-21T08:52:57;32.05;;;24.38;;
56183;SDS011;42086;53.170;6.980;2022-07-21T08:55:34;25.23;;;21.05;;
56183;SDS011;42086;53.170;6.980;2022-07-21T08:58:02;27.33;;;21.55;;
56183;SDS011;42086;53.170;6.980;2022-07-21T09:00:28;30.52;;;21.55;;
56183;SDS011;42086;53.170;6.980;2022-07-21T09:08:30;27.13;;;19.90;;
56183;SDS011;42086;53.170;6.980;2022-07-21T09:13:43;22.10;;;18.45;;
56183;SDS011;42086;53.170;6.980;2022-07-21T09:16:11;22.25;;;17.90;;
56183;SDS011;42086;53.170;6.980;2022-07-21T09:18:47;22.10;;;18.83;;
56183;SDS011;42086;53.170;6.980;2022-07-21T09:21:16;22.83;;;19.67;;
56183;SDS011;42086;53.170;6.980;2022-07-21T09:23:43;25.02;;;20.20;;
56183;SDS011;42086;53.170;6.980;2022-07-21T09:26:09;22.50;;;18.55;;
56183;SDS011;42086;53.170;6.980;2022-07-21T09:28:35;21.63;;;17.85;;
56183;SDS011;42086;53.170;6.980;2022-07-21T09:33:38;22.50;;;19.00;;
56183;SDS011;42086;53.170;6.980;2022-07-21T09:36:13;25.30;;;19.15;;
56183;SDS011;42086;53.170;6.980;2022-07-21T09:38:42;23.83;;;19.80;;
56183;SDS011;42086;53.170;6.980;2022-07-21T09:41:21;23.05;;;19.77;;
56183;SDS011;42086;53.170;6.980;2022-07-21T09:43:49;22.65;;;19.00;;
56183;SDS011;42086;53.170;6.980;2022-07-21T09:48:46;20.00;;;17.90;;
56183;SDS011;42086;53.170;6.980;2022-07-21T09:56:37;18.63;;;15.60;;
56183;SDS011;42086;53.170;6.980;2022-07-21T09:59:08;18.25;;;16.13;;
56183;SDS011;42086;53.170;6.980;2022-07-21T10:01:36;20.25;;;17.50;;
56183;SDS011;42086;53.170;6.980;2022-07-21T10:04:03;21.42;;;18.08;;
56183;SDS011;42086;53.170;6.980;2022-07-21T10:06:30;25.02;;;19.50;;
56183;SDS011;42086;53.170;6.980;2022-07-21T10:09:01;23.90;;;19.55;;
56183;SDS011;42086;53.170;6.980;2022-07-21T10:11:28;24.85;;;19.77;;
56183;SDS011;42086;53.170;6.980;2022-07-21T10:13:54;25.38;;;19.58;;
56183;SDS011;42086;53.170;6.980;2022-07-21T10:16:20;25.23;;;19.98;;
56183;SDS011;42086;53.170;6.980;2022-07-21T10:19:05;22.08;;;18.38;;
56183;SDS011;42086;53.170;6.980;2022-07-21T10:21:52;23.05;;;18.50;;
56183;SDS011;42086;53.170;6.980;2022-07-21T10:24:30;23.35;;;19.60;;
56183;SDS011;42086;53.170;6.980;2022-07-21T10:27:00;24.63;;;19.02;;
56183;SDS011;42086;53.170;6.980;2022-07-21T10:32:14;24.95;;;19.30;;
56183;SDS011;42086;53.170;6.980;2022-07-21T10:34:40;21.75;;;19.05;;
56183;SDS011;42086;53.170;6.980;2022-07-21T10:37:08;24.98;;;20.70;;
56183;SDS011;42086;53.170;6.980;2022-07-21T10:39:34;23.25;;;19.90;;
56183;SDS011;42086;53.170;6.980;2022-07-21T10:42:00;25.98;;;21.00;;
56183;SDS011;42086;53.170;6.980;2022-07-21T10:44:42;28.48;;;22.50;;
56183;SDS011;42086;53.170;6.980;2022-07-21T10:47:10;27.17;;;22.55;;
56183;SDS011;42086;53.170;6.980;2022-07-21T10:50:01;26.98;;;21.98;;
56183;SDS011;42086;53.170;6.980;2022-07-21T10:57:43;27.13;;;20.92;;
56183;SDS011;42086;53.170;6.980;2022-07-21T11:02:56;26.13;;;20.25;;
56183;SDS011;42086;53.170;6.980;2022-07-21T11:05:25;30.65;;;22.52;;
56183;SDS011;42086;53.170;6.980;2022-07-21T11:13:13;30.65;;;22.45;;
56183;SDS011;42086;53.170;6.980;2022-07-21T11:15:44;28.08;;;21.98;;
56183;SDS011;42086;53.170;6.980;2022-07-21T11:18:10;29.13;;;22.60;;
56183;SDS011;42086;53.170;6.980;2022-07-21T11:20:36;29.52;;;23.35;;
56183;SDS011;42086;53.170;6.980;2022-07-21T11:23:02;29.25;;;21.42;;
56183;SDS011;42086;53.170;6.980;2022-07-21T11:25:33;30.05;;;21.95;;
56183;SDS011;42086;53.170;6.980;2022-07-21T11:30:24;32.72;;;25.90;;
56183;SDS011;42086;53.170;6.980;2022-07-21T11:32:50;38.45;;;26.25;;
56183;SDS011;42086;53.170;6.980;2022-07-21T11:35:17;42.30;;;30.10;;
56183;SDS011;42086;53.170;6.980;2022-07-21T11:37:43;43.13;;;30.23;;
56183;SDS011;42086;53.170;6.980;2022-07-21T11:40:17;53.05;;;33.55;;
56183;SDS011;42086;53.170;6.980;2022-07-21T11:42:46;55.05;;;34.95;;
56183;SDS011;42086;53.170;6.980;2022-07-21T11:45:15;63.80;;;37.47;;
56183;SDS011;42086;53.170;6.980;2022-07-21T11:47:42;65.85;;;38.95;;
56183;SDS011;42086;53.170;6.980;2022-07-21T11:50:09;63.15;;;38.25;;
56183;SDS011;42086;53.170;6.980;2022-07-21T11:52:37;69.38;;;39.63;;
56183;SDS011;42086;53.170;6.980;2022-07-21T11:55:05;64.68;;;39.42;;
56183;SDS011;42086;53.170;6.980;2022-07-21T11:57:33;80.90;;;44.17;;
56183;SDS011;42086;53.170;6.980;2022-07-21T11:59:59;62.40;;;38.90;;
56183;SDS011;42086;53.170;6.980;2022-07-21T12:02:26;69.57;;;42.03;;
56183;SDS011;42086;53.170;6.980;2022-07-21T12:04:55;57.15;;;35.42;;
56183;SDS011;42086;53.170;6.980;2022-07-21T12:07:39;70.45;;;40.50;;
56183;SDS011;42086;53.170;6.980;2022-07-21T12:12:42;65.65;;;39.10;;
56183;SDS011;42086;53.170;6.980;2022-07-21T12:18:00;58.15;;;36.47;;
56183;SDS011;42086;53.170;6.980;2022-07-21T12:20:29;59.97;;;38.67;;
56183;SDS011;42086;53.170;6.980;2022-07-21T12:22:56;63.40;;;39.75;;
56183;SDS011;42086;53.170;6.980;2022-07-21T12:25:36;61.55;;;38.25;;
56183;SDS011;42086;53.170;6.980;2022-07-21T12:28:04;73.57;;;42.70;;
56183;SDS011;42086;53.170;6.980;2022-07-21T12:33:07;70.70;;;43.92;;
56183;SDS011;42086;53.170;6.980;2022-07-21T12:35:36;65.18;;;41.20;;
56183;SDS011;42086;53.170;6.980;2022-07-21T12:38:13;61.67;;;38.30;;
56183;SDS011;42086;53.170;6.980;2022-07-21T12:40:42;54.10;;;35.40;;
56183;SDS011;42086;53.170;6.980;2022-07-21T12:43:19;59.25;;;36.50;;
56183;SDS011;42086;53.170;6.980;2022-07-21T12:45:56;53.78;;;34.50;;
56183;SDS011;42086;53.170;6.980;2022-07-21T12:48:29;48.40;;;32.97;;
56183;SDS011;42086;53.170;6.980;2022-07-21T12:51:01;44.03;;;30.38;;
56183;SDS011;42086;53.170;6.980;2022-07-21T12:53:52;41.53;;;29.83;;
56183;SDS011;42086;53.170;6.980;2022-07-21T12:56:23;40.95;;;28.38;;
56183;SDS011;42086;53.170;6.980;2022-07-21T12:58:51;36.45;;;27.15;;
56183;SDS011;42086;53.170;6.980;2022-07-21T13:01:22;40.88;;;28.63;;
56183;SDS011;42086;53.170;6.980;2022-07-21T13:03:49;34.80;;;26.67;;
56183;SDS011;42086;53.170;6.980;2022-07-21T13:06:15;39.33;;;27.35;;
56183;SDS011;42086;53.170;6.980;2022-07-21T13:08:42;39.40;;;27.48;;
56183;SDS011;42086;53.170;6.980;2022-07-21T13:11:14;41.53;;;29.75;;
56183;SDS011;42086;53.170;6.980;2022-07-21T13:13:43;37.95;;;27.42;;
56183;SDS011;42086;53.170;6.980;2022-07-21T13:16:11;38.25;;;27.27;;
56183;SDS011;42086;53.170;6.980;2022-07-21T13:18:37;36.83;;;27.40;;
56183;SDS011;42086;53.170;6.980;2022-07-21T13:21:03;37.58;;;26.90;;
56183;SDS011;42086;53.170;6.980;2022-07-21T13:23:31;31.35;;;24.50;;
56183;SDS011;42086;53.170;6.980;2022-07-21T13:25:57;36.38;;;26.70;;
56183;SDS011;42086;53.170;6.980;2022-07-21T13:28:23;34.10;;;26.15;;
56183;SDS011;42086;53.170;6.980;2022-07-21T13:30:52;34.42;;;25.55;;
56183;SDS011;42086;53.170;6.980;2022-07-21T13:33:17;35.92;;;27.10;;
56183;SDS011;42086;53.170;6.980;2022-07-21T13:35:43;36.03;;;26.95;;
56183;SDS011;42086;53.170;6.980;2022-07-21T13:38:10;40.88;;;29.38;;
56183;SDS011;42086;53.170;6.980;2022-07-21T13:40:36;38.17;;;27.13;;
56183;SDS011;42086;53.170;6.980;2022-07-21T13:43:05;41.15;;;29.08;;
56183;SDS011;42086;53.170;6.980;2022-07-21T13:45:31;42.08;;;29.30;;
56183;SDS011;42086;53.170;6.980;2022-07-21T13:47:57;38.88;;;28.70;;
56183;SDS011;42086;53.170;6.980;2022-07-21T13:50:23;38.97;;;28.67;;
56183;SDS011;42086;53.170;6.980;2022-07-21T13:52:48;40.22;;;27.38;;
56183;SDS011;42086;53.170;6.980;2022-07-21T13:55:14;40.70;;;28.45;;
56183;SDS011;42086;53.170;6.980;2022-07-21T13:57:40;43.40;;;28.77;;
56183;SDS011;42086;53.170;6.980;2022-07-21T14:00:07;34.45;;;26.90;;
56183;SDS011;42086;53.170;6.980;2022-07-21T14:02:34;39.55;;;28.83;;
56183;SDS011;42086;53.170;6.980;2022-07-21T14:05:01;42.20;;;30.15;;
56183;SDS011;42086;53.170;6.980;2022-07-21T14:07:28;40.90;;;28.38;;
56183;SDS011;42086;53.170;6.980;2022-07-21T14:09:54;37.65;;;27.50;;
56183;SDS011;42086;53.170;6.980;2022-07-21T14:12:20;38.90;;;26.67;;
56183;SDS011;42086;53.170;6.980;2022-07-21T14:14:45;36.38;;;28.58;;
56183;SDS011;42086;53.170;6.980;2022-07-21T14:17:12;35.28;;;26.17;;
56183;SDS011;42086;53.170;6.980;2022-07-21T14:19:39;33.35;;;23.65;;
56183;SDS011;42086;53.170;6.980;2022-07-21T14:22:04;33.53;;;22.90;;
56183;SDS011;42086;53.170;6.980;2022-07-21T14:24:30;28.65;;;21.52;;
56183;SDS011;42086;53.170;6.980;2022-07-21T14:27:14;24.83;;;19.67;;
56183;SDS011;42086;53.170;6.980;2022-07-21T14:29:40;27.05;;;19.35;;
56183;SDS011;42086;53.170;6.980;2022-07-21T14:32:06;23.30;;;17.25;;
56183;SDS011;42086;53.170;6.980;2022-07-21T14:34:31;22.58;;;17.35;;
56183;SDS011;42086;53.170;6.980;2022-07-21T14:36:57;17.90;;;14.98;;
56183;SDS011;42086;53.170;6.980;2022-07-21T14:39:23;19.92;;;15.75;;
56183;SDS011;42086;53.170;6.980;2022-07-21T14:41:48;17.88;;;15.20;;
56183;SDS011;42086;53.170;6.980;2022-07-21T14:44:15;17.77;;;15.00;;
56183;SDS011;42086;53.170;6.980;2022-07-21T14:46:40;17.70;;;15.02;;
56183;SDS011;42086;53.170;6.980;2022-07-21T14:49:06;20.90;;;15.48;;
56183;SDS011;42086;53.170;6.980;2022-07-21T14:51:32;19.98;;;16.27;;
56183;SDS011;42086;53.170;6.980;2022-07-21T14:53:58;19.98;;;15.23;;
56183;SDS011;42086;53.170;6.980;2022-07-21T14:56:24;19.58;;;14.73;;
56183;SDS011;42086;53.170;6.980;2022-07-21T14:58:50;17.23;;;13.85;;
56183;SDS011;42086;53.170;6.980;2022-07-21T15:01:15;17.90;;;14.07;;
56183;SDS011;42086;53.170;6.980;2022-07-21T15:03:41;18.63;;;14.82;;
56183;SDS011;42086;53.170;6.980;2022-07-21T15:06:08;20.17;;;15.93;;
56183;SDS011;42086;53.170;6.980;2022-07-21T15:08:34;20.35;;;16.60;;